createdAt,value
2019-03-29T00:01:36.563Z,5.80
2019-03-29T00:06:10.773Z,5.80
2019-03-29T00:10:45.111Z,5.60
2019-03-29T00:15:18.818Z,5.60
2019-03-29T00:19:51.387Z,5.60
2019-03-29T00:24:25.159Z,5.30
2019-03-29T00:28:58.338Z,5.20
2019-03-29T00:33:31.704Z,4.90
2019-03-29T00:38:24.606Z,5.00
2019-03-29T00:42:59.275Z,5.00
2019-03-29T00:47:32.651Z,5.10
2019-03-29T00:52:04.426Z,4.90
2019-03-29T00:56:38.980Z,4.90
2019-03-29T01:01:11.756Z,4.90
2019-03-29T01:06:03.845Z,5.00
2019-03-29T01:10:38.721Z,4.80
2019-03-29T01:15:14.224Z,4.90
2019-03-29T01:19:46.881Z,4.90
2019-03-29T01:24:20.906Z,4.70
2019-03-29T01:28:53.817Z,4.60
2019-03-29T01:33:27.179Z,4.40
2019-03-29T01:38:01.831Z,4.70
2019-03-29T01:42:35.110Z,4.50
2019-03-29T01:47:10.893Z,4.50
2019-03-29T01:52:06.336Z,4.90
2019-03-29T01:56:42.939Z,4.70
2019-03-29T02:01:14.371Z,4.30
2019-03-29T02:05:48.411Z,4.70
2019-03-29T02:10:23.106Z,4.80
2019-03-29T02:14:59.037Z,5.00
2019-03-29T02:19:32.439Z,5.20
2019-03-29T02:24:04.650Z,5.20
2019-03-29T02:28:39.030Z,5.30
2019-03-29T02:33:11.795Z,5.50
2019-03-29T02:37:46.453Z,5.50
2019-03-29T02:42:21.376Z,5.60
2019-03-29T02:46:54.275Z,5.70
2019-03-29T02:51:27.606Z,5.50
2019-03-29T02:56:20.929Z,5.60
2019-03-29T03:00:54.654Z,5.50
2019-03-29T03:05:28.085Z,5.20
2019-03-29T03:09:59.431Z,5.20
2019-03-29T03:14:32.091Z,5.10
2019-03-29T03:19:07.341Z,5.20
2019-03-29T03:23:39.073Z,5.10
2019-03-29T03:28:16.135Z,5.10
2019-03-29T03:32:51.000Z,4.30
2019-03-29T03:37:23.860Z,4.40
2019-03-29T03:41:58.975Z,4.70
2019-03-29T03:46:35.826Z,4.50
2019-03-29T03:51:09.261Z,4.50
2019-03-29T04:00:18.274Z,4.50
2019-03-29T04:04:51.851Z,4.60
2019-03-29T04:13:58.405Z,4.40
2019-03-29T04:18:31.948Z,4.30
2019-03-29T04:27:38.603Z,4.10
2019-03-29T04:32:11.629Z,4.10
2019-03-29T04:36:47.330Z,3.70
2019-03-29T04:41:19.469Z,4.20
2019-03-29T04:45:52.293Z,4.40
2019-03-29T04:50:26.491Z,4.50
2019-03-29T04:55:00.537Z,5.10
2019-03-29T04:59:34.764Z,4.70
2019-03-29T05:04:08.378Z,4.80
2019-03-29T05:08:39.206Z,4.70
2019-03-29T05:13:14.346Z,4.70
2019-03-29T05:17:48.539Z,4.60
2019-03-29T05:22:19.247Z,4.20
2019-03-29T05:26:53.876Z,4.80
2019-03-29T05:31:29.204Z,4.50
2019-03-29T05:35:59.430Z,5.00
2019-03-29T05:40:35.284Z,4.60
2019-03-29T05:45:09.147Z,4.90
2019-03-29T05:49:42.255Z,5.20
2019-03-29T05:54:15.975Z,5.40
2019-03-29T05:58:50.638Z,5.60
2019-03-29T06:03:45.988Z,5.50
2019-03-29T06:08:21.830Z,5.60
2019-03-29T06:12:54.520Z,5.10
2019-03-29T06:17:29.163Z,5.60
2019-03-29T06:22:02.382Z,3.20
2019-03-29T06:26:35.687Z,1.20
2019-03-29T06:31:09.335Z,5.70
2019-03-29T06:35:46.875Z,5.10
2019-03-29T06:40:22.089Z,6.00
2019-03-29T06:44:54.852Z,6.30
2019-03-29T06:49:29.027Z,6.40
2019-03-29T06:54:02.144Z,6.90
2019-03-29T06:58:34.757Z,7.00
2019-03-29T07:03:07.332Z,6.10
2019-03-29T07:07:44.557Z,7.30
2019-03-29T07:12:19.423Z,7.50
2019-03-29T07:16:52.758Z,7.90
2019-03-29T07:21:26.173Z,7.80
2019-03-29T07:26:01.012Z,8.50
2019-03-29T07:30:32.226Z,8.30
2019-03-29T07:35:07.296Z,7.80
2019-03-29T07:39:41.931Z,8.10
2019-03-29T07:44:15.539Z,8.10
2019-03-29T07:48:49.313Z,8.40
2019-03-29T07:53:22.388Z,7.80
2019-03-29T07:57:55.408Z,7.80
2019-03-29T08:02:31.187Z,7.30
2019-03-29T08:07:06.245Z,8.20
2019-03-29T08:11:46.064Z,8.10
2019-03-29T08:16:16.086Z,8.80
2019-03-29T08:25:42.339Z,8.00
2019-03-29T08:30:14.763Z,7.80
2019-03-29T08:34:52.486Z,8.20
2019-03-29T08:39:28.219Z,8.30
2019-03-29T08:44:00.199Z,8.60
2019-03-29T08:48:32.387Z,8.60
2019-03-29T08:53:04.271Z,9.00
2019-03-29T09:02:04.526Z,9.30
2019-03-29T09:06:52.589Z,9.20
2019-03-29T09:11:18.192Z,9.30
2019-03-29T09:15:52.279Z,9.30
2019-03-29T09:20:25.578Z,9.30
2019-03-29T09:25:00.842Z,9.30
2019-03-29T09:29:35.048Z,9.50
2019-03-29T09:34:11.769Z,9.00
2019-03-29T09:38:43.956Z,9.30
2019-03-29T09:43:19.561Z,9.60
2019-03-29T09:47:55.801Z,10.40
2019-03-29T09:52:28.831Z,10.50
2019-03-29T09:57:01.936Z,10.40
2019-03-29T10:01:35.204Z,10.20
2019-03-29T10:06:09.011Z,10.30
2019-03-29T10:10:43.271Z,10.90
2019-03-29T10:15:16.917Z,11.40
2019-03-29T10:19:52.199Z,12.00
2019-03-29T10:24:25.016Z,12.00
2019-03-29T10:29:00.140Z,13.70
2019-03-29T10:33:33.624Z,11.40
2019-03-29T10:38:04.741Z,11.50
2019-03-29T10:42:56.737Z,11.90
2019-03-29T10:47:20.153Z,11.80
2019-03-29T10:51:53.153Z,11.90
2019-03-29T10:56:33.885Z,11.70
2019-03-29T11:01:00.501Z,12.10
2019-03-29T11:05:34.573Z,12.70
2019-03-29T11:10:09.093Z,12.50
2019-03-29T11:14:42.899Z,12.60
2019-03-29T11:19:16.898Z,12.50
2019-03-29T11:23:52.100Z,13.20
2019-03-29T11:28:24.440Z,13.10
2019-03-29T11:32:57.351Z,12.80
2019-03-29T11:37:33.526Z,12.60
2019-03-29T11:42:05.222Z,12.80
2019-03-29T11:46:37.738Z,12.50
2019-03-29T11:55:42.544Z,12.20
2019-03-29T12:00:21.589Z,12.10
2019-03-29T12:04:55.598Z,11.90
2019-03-29T12:09:32.207Z,11.90
2019-03-29T12:14:05.250Z,12.00
2019-03-29T12:18:39.663Z,12.00
2019-03-29T12:23:14.018Z,11.60
2019-03-29T12:27:44.486Z,11.90
2019-03-29T12:32:21.755Z,12.10
2019-03-29T12:37:14.445Z,11.90
2019-03-29T12:41:49.695Z,11.90
2019-03-29T12:46:24.833Z,12.10
2019-03-29T12:51:00.818Z,10.50
2019-03-29T12:55:54.607Z,12.20
2019-03-29T13:00:33.005Z,13.40
2019-03-29T13:05:04.222Z,12.10
2019-03-29T13:09:39.581Z,12.10
2019-03-29T13:14:12.228Z,12.10
2019-03-29T13:18:44.443Z,12.00
2019-03-29T13:23:17.330Z,11.90
2019-03-29T13:32:24.397Z,12.20
2019-03-29T13:36:57.216Z,12.30
2019-03-29T13:41:32.753Z,12.40
2019-03-29T13:46:25.187Z,12.50
2019-03-29T13:50:59.946Z,12.30
2019-03-29T13:55:33.805Z,12.50
2019-03-29T14:00:06.393Z,12.70
2019-03-29T14:04:39.971Z,12.30
2019-03-29T14:09:14.018Z,12.40
2019-03-29T14:13:45.517Z,12.50
2019-03-29T14:18:21.248Z,12.40
2019-03-29T14:22:55.513Z,12.10
2019-03-29T14:27:28.502Z,12.00
2019-03-29T14:32:03.777Z,12.10
2019-03-29T14:36:40.533Z,11.90
2019-03-29T14:41:13.975Z,11.90
2019-03-29T14:45:44.764Z,11.90
2019-03-29T14:50:22.553Z,12.10
2019-03-29T14:55:18.516Z,13.70
2019-03-29T14:59:52.207Z,11.60
2019-03-29T15:04:24.851Z,11.60
2019-03-29T15:08:57.597Z,11.60
2019-03-29T15:13:30.184Z,11.70
2019-03-29T15:18:05.133Z,11.70
2019-03-29T15:22:40.131Z,11.70
2019-03-29T15:27:13.764Z,11.60
2019-03-29T15:31:49.298Z,11.40
2019-03-29T15:36:28.161Z,11.60
2019-03-29T15:41:02.272Z,11.80
2019-03-29T15:50:08.705Z,11.70
2019-03-29T15:54:42.267Z,11.70
2019-03-29T15:59:16.884Z,11.40
2019-03-29T16:03:50.309Z,11.50
2019-03-29T16:08:26.133Z,11.60
2019-03-29T16:13:08.446Z,11.70
2019-03-29T16:17:42.256Z,11.50
2019-03-29T16:22:16.979Z,11.50
2019-03-29T16:26:49.529Z,11.50
2019-03-29T16:31:27.475Z,11.30
2019-03-29T16:36:20.132Z,11.40
2019-03-29T16:40:54.738Z,11.40
2019-03-29T16:45:28.321Z,11.40
2019-03-29T16:50:40.901Z,11.20
2019-03-29T16:55:14.722Z,11.10
2019-03-29T16:59:48.944Z,11.00
2019-03-29T17:04:27.962Z,11.00
2019-03-29T17:09:01.011Z,11.00
2019-03-29T17:13:38.677Z,10.90
2019-03-29T17:18:08.246Z,10.90
2019-03-29T17:22:43.466Z,11.00
2019-03-29T17:27:17.239Z,11.00
2019-03-29T17:31:52.269Z,10.90
2019-03-29T17:36:28.129Z,10.70
2019-03-29T17:41:02.515Z,10.80
2019-03-29T17:50:08.888Z,10.50
2019-03-29T17:54:44.826Z,10.80
2019-03-29T17:59:19.176Z,10.80
2019-03-29T18:03:53.411Z,11.00
2019-03-29T18:08:27.625Z,10.90
2019-03-29T18:13:06.638Z,10.90
2019-03-29T18:17:40.313Z,10.70
2019-03-29T18:22:16.765Z,10.70
2019-03-29T18:26:47.267Z,10.80
2019-03-29T18:35:55.128Z,10.60
2019-03-29T18:40:35.183Z,10.60
2019-03-29T18:45:07.333Z,10.60
2019-03-29T18:49:42.205Z,10.70
2019-03-29T18:54:14.395Z,10.40
2019-03-29T18:58:48.186Z,10.60
2019-03-29T19:03:22.103Z,10.40
2019-03-29T19:07:54.419Z,10.30
2019-03-29T19:12:27.699Z,10.70
2019-03-29T19:17:01.548Z,10.10
2019-03-29T19:21:34.778Z,10.30
2019-03-29T19:26:10.687Z,10.60
2019-03-29T19:30:43.421Z,10.20
2019-03-29T19:35:17.214Z,10.30
2019-03-29T19:39:51.791Z,10.00
2019-03-29T19:44:47.729Z,9.90
2019-03-29T19:49:23.320Z,10.00
2019-03-29T19:54:18.330Z,9.80
2019-03-29T19:58:56.620Z,9.90
2019-03-29T20:03:30.371Z,9.90
2019-03-29T20:08:05.236Z,9.60
2019-03-29T20:12:36.324Z,9.70
2019-03-29T20:17:10.121Z,9.70
2019-03-29T20:21:42.883Z,9.80
2019-03-29T20:26:14.499Z,9.70
2019-03-29T20:30:47.521Z,9.70
2019-03-29T20:35:23.537Z,9.70
2019-03-29T20:39:54.952Z,9.80
2019-03-29T20:44:30.384Z,9.60
2019-03-29T20:49:04.443Z,9.50
2019-03-29T20:53:39.227Z,9.70
2019-03-29T20:58:15.831Z,9.60
2019-03-29T21:02:49.768Z,9.70
2019-03-29T21:07:23.848Z,9.60
2019-03-29T21:11:54.976Z,9.80
2019-03-29T21:16:30.962Z,9.70
2019-03-29T21:21:04.056Z,9.60
2019-03-29T21:25:34.656Z,9.50
2019-03-29T21:30:09.611Z,9.50
2019-03-29T21:34:43.663Z,9.80
2019-03-29T21:39:18.343Z,9.40
2019-03-29T21:43:51.658Z,9.60
2019-03-29T21:48:30.815Z,9.20
2019-03-29T21:57:35.341Z,9.30
2019-03-29T22:02:12.029Z,9.20
2019-03-29T22:07:04.503Z,9.30
2019-03-29T22:11:41.594Z,9.20
2019-03-29T22:16:13.922Z,9.80
2019-03-29T22:20:47.209Z,9.30
2019-03-29T22:29:52.077Z,9.00
2019-03-29T22:34:24.501Z,8.90
2019-03-29T22:38:55.848Z,8.60
2019-03-29T22:43:32.975Z,9.10
2019-03-29T22:48:05.422Z,9.00
2019-03-29T22:52:38.779Z,9.10
2019-03-29T22:57:11.581Z,9.40
2019-03-29T23:01:47.380Z,9.30
2019-03-29T23:10:53.070Z,9.10
2019-03-29T23:15:27.331Z,9.00
2019-03-29T23:24:33.124Z,8.70
2019-03-29T23:29:07.924Z,9.10
2019-03-29T23:33:42.215Z,8.90
2019-03-29T23:38:15.393Z,8.90
2019-03-29T23:42:50.529Z,8.60
2019-03-29T23:47:23.720Z,8.70
2019-03-29T23:51:57.837Z,8.80
2019-03-29T23:56:30.513Z,8.60
